• Join FlightAware (Why Join?)
  • Login
  • US Flag 
05:53AM EDT


 

Airport Tracker/Info


-or-


 

Live Flight TrackerFlight Track Log ✈ FLG4294 ✈ 10-Apr-2013 ✈ KDTW - CYYZ

Flight Track Log - Related Links

Times and Time Zones

All times are in EDT time to prevent confusion due to time zone crossing. See the FLG4294 flight status page for this flight to view local times or setup timezone preferences in your user account.

Time Position Orientation Groundspeed Altitude Reporting Facility
EDT Latitude Longitude Course Direction KTS MPH feet Rate Location/Type
11:30PM 42.2261 -83.3378 34° Northeast 136 157 1,300  Level FAA TRACON SMA TRACON (SMA)
11:31PM 42.2353 -83.3294 34° Northeast 138 159 2,000 1,800 Climbing FAA TRACON SMA TRACON (SMA)
11:31PM 42.2497 -83.3172 32° Northeast 182 209 2,500 1,800 Climbing FAA TRACON SMA TRACON (SMA)
11:31PM 42.2644 -83.3069 27° Northeast 201 231 3,200 2,400 Climbing FAA TRACON SMA TRACON (SMA)
11:32PM 42.2836 -83.2919 30° Northeast 216 249 4,100 1,800 Climbing FAA TRACON SMA TRACON (SMA)
11:32PM 42.3000 -83.2769 34° Northeast 255 293 4,400 1,500 Climbing FAA TRACON SMA TRACON (SMA)
11:32PM 42.3214 -83.2578 34° Northeast 267 307 5,100 2,580 Climbing FAA TRACON SMA TRACON (SMA)
11:33PM 42.3439 -83.2517 11° North 264 304 6,100 2,580 Climbing FAA TRACON SMA TRACON (SMA)
11:33PM 42.3706 -83.2464 North 274 315 6,900 2,520 Climbing FAA TRACON SMA TRACON (SMA)
11:33PM 42.3933 -83.2417 North 278 320 7,800 2,700 Climbing FAA TRACON SMA TRACON (SMA)
11:34PM 42.4214 -83.2358 North 288 331 8,700 2,700 Climbing FAA TRACON SMA TRACON (SMA)
11:34PM 42.4511 -83.2292 North 295 339 9,600 2,700 Climbing FAA TRACON SMA TRACON (SMA)
11:34PM 42.4742 -83.2244 North 296 341 10,500 1,860 Climbing FAA TRACON SMA TRACON (SMA)
11:35PM 42.5053 -83.2178 North 315 362 10,900 720 Climbing FAA TRACON SMA TRACON (SMA)
11:35PM 42.5325 -83.2122 North 340 391 11,000 1,020 Climbing FAA TRACON SMA TRACON (SMA)
11:35PM 42.5653 -83.2058 North 348 400 11,600 1,500 Climbing FAA TRACON SMA TRACON (SMA)
11:36PM 42.5911 -83.2000 North 355 409 12,000 1,920 Climbing FAA TRACON SMA TRACON (SMA)
11:36PM 42.6328 -83.1911 North 356 410 12,900 2,220 Climbing FAA TRACON SMA TRACON (SMA)
11:36PM 42.6639 -83.1847 North 360 414 13,500 1,920 Climbing FAA TRACON SMA TRACON (SMA)
11:37PM 42.7022 -83.1767 North 362 417 14,200 1,560 Climbing FAA TRACON SMA TRACON (SMA)
11:37PM 42.7333 -83.1703 North 366 421 14,600 1,680 Climbing FAA TRACON SMA TRACON (SMA)
11:37PM 42.7653 -83.1636 North 370 426 15,300 2,100 Climbing FAA TRACON SMA TRACON (SMA)
11:38PM 42.8047 -83.1556 North 371 427 16,000 1,920 Climbing FAA TRACON SMA TRACON (SMA)
11:38PM 42.8361 -83.1494 North 371 427 16,600 1,320 Climbing FAA TRACON SMA TRACON (SMA)
11:38PM 42.8656 -83.1333 22° Northeast 398 458 16,900 1,020 Climbing FAA TRACON SMA TRACON (SMA)
11:39PM 42.8922 -83.0992 43° Northeast 404 465 17,300 1,620 Climbing FAA TRACON SMA TRACON (SMA)
11:39PM 42.9119 -83.0422 65° Northeast 431 496 18,000 1,560 Climbing FAA TRACON SMA TRACON (SMA)
11:39PM 42.9228 -82.9936 73° East 442 509 18,400 1,020 Climbing FAA TRACON SMA TRACON (SMA)
11:40PM 42.9336 -82.9450 73° East 444 511 18,700 1,020 Climbing FAA TRACON SMA TRACON (SMA)
11:40PM 42.9475 -82.8842 73° East 438 504 19,100 1,020 Climbing FAA TRACON SMA TRACON (SMA)
11:40PM 42.9578 -82.8336 74° East 444 511 19,400 900 Climbing FAA TRACON SMA TRACON (SMA)
11:41PM 42.9689 -82.7839 73° East 445 512 19,700 720 Climbing FAA TRACON SMA TRACON (SMA)
11:41PM 42.9744 -82.7592 73° East 443 510 19,900 300 Climbing FAA TRACON SMA TRACON (SMA)
11:41PM 42.9744 -82.7592 29° Northeast 443 510 19,900 1,080 Level FAA TRACON SMA TRACON (SMA)
11:42PM 43.0119 -82.5764 74° East 431 496 21,000 660 Climbing Cleveland Center
11:43PM 43.0503 -82.4072 73° East 447 514 21,000  Level Cleveland Center
11:44PM 43.0833 -82.1833 78° East 490 564 21,000  Level Toronto Center
11:45PM 43.1167 -82.0167 75° East 500 575 21,000  Level Toronto Center
11:46PM 43.1667 -81.8000 72° East 510 587 21,000  Level Toronto Center
11:47PM 43.2000 -81.6167 76° East 510 587 21,000  Level Toronto Center
11:48PM 43.2333 -81.4333 76° East 510 587 21,000  Level Toronto Center
11:49PM 43.2667 -81.2333 77° East 500 575 21,000 -540 Level Toronto Center
11:50PM 43.3000 -81.0833 73° East 500 575 20,000 -1,800 Descending Toronto Center
11:51PM 43.3333 -80.9000 76° East 480 552 17,400 -2,640 Descending Toronto Center
11:52PM 43.3833 -80.7333 68° East 430 495 14,800 -2,280 Descending Toronto Center
11:53PM 43.4000 -80.6167 79° East 370 426 12,900 -1,860 Descending Toronto Center
11:54PM 43.4333 -80.4833 71° East 350 403 11,100 -1,800 Descending Toronto Center
11:55PM 43.4500 -80.3667 79° East 330 380 9,400 -1,680 Descending Toronto Center
11:56PM 43.4667 -80.2500 79° East 300 345 7,800 -1,200 Descending Toronto Center
11:57PM 43.4833 -80.1667 75° East 260 299 7,000 -660 Descending Toronto Center
11:58PM 43.4833 -80.0667 90° East 240 276 6,500 -540 Descending Toronto Center
11:59PM 43.4833 -79.9833 90° East 210 242 6,000 -720 Descending Toronto Center
12:00AM 43.4833 -79.9167 90° East 200 230 5,100 -840 Descending Toronto Center
12:01AM 43.5167 -79.8667 47° Northeast 180 207 4,400 -900 Descending Toronto Center
12:02AM 43.5500 -79.8167 47° Northeast 150 173 3,300 -720 Descending Toronto Center
12:03AM 43.5667 -79.7667 65° Northeast 150 173 3,000 -480 Descending Toronto Center
12:04AM 43.6000 -79.7333 36° Northeast 160 184 2,400 -660 Descending Toronto Center
12:05AM 43.6333 -79.7000 36° Northeast 140 161 1,700 -720 Descending Toronto Center
12:06AM 43.6500 -79.6500 65° Northeast 130 150 1,000 -600 Descending Toronto Center
12:07AM 43.6667 -79.6333 36° Northeast 110 127 600 -420 Descending Toronto Center